createdAt,value
2023-09-21T00:00:36.394Z,80.76
2023-09-21T00:04:35.379Z,80.98
2023-09-21T00:08:35.241Z,81.00
2023-09-21T00:12:35.037Z,81.67
2023-09-21T00:16:35.173Z,81.12
2023-09-21T00:20:42.571Z,81.27
2023-09-21T00:24:35.058Z,81.22
2023-09-21T00:28:35.289Z,80.84
2023-09-21T00:32:39.694Z,80.79
2023-09-21T00:36:35.665Z,81.15
2023-09-21T00:40:38.986Z,81.07
2023-09-21T00:44:35.058Z,81.25
2023-09-21T00:48:42.890Z,81.22
2023-09-21T00:52:36.415Z,80.67
2023-09-21T00:56:37.308Z,80.52
2023-09-21T01:00:38.961Z,80.56
2023-09-21T01:04:35.394Z,80.79
2023-09-21T01:08:35.085Z,80.97
2023-09-21T01:12:35.856Z,80.87
2023-09-21T01:16:35.248Z,81.29
2023-09-21T01:20:35.566Z,80.83
2023-09-21T01:24:35.401Z,81.33
2023-09-21T01:28:37.139Z,81.36
2023-09-21T01:32:35.153Z,81.56
2023-09-21T01:36:35.878Z,81.04
2023-09-21T01:40:36.891Z,80.76
2023-09-21T01:44:35.258Z,80.87
2023-09-21T01:48:35.532Z,80.18
2023-09-21T01:52:35.517Z,80.66
2023-09-21T01:56:35.274Z,80.75
2023-09-21T02:00:39.586Z,80.76
2023-09-21T02:04:35.272Z,80.62
2023-09-21T02:12:36.314Z,80.70
2023-09-21T02:16:35.341Z,80.45
2023-09-21T02:20:39.017Z,80.15
2023-09-21T02:24:36.592Z,80.42
2023-09-21T02:28:35.926Z,80.49
2023-09-21T02:32:35.378Z,80.50
2023-09-21T02:36:35.566Z,80.59
2023-09-21T02:40:35.816Z,80.51
2023-09-21T02:44:35.534Z,80.23
2023-09-21T02:48:35.437Z,80.02
2023-09-21T02:52:36.224Z,80.06
2023-09-21T02:56:35.608Z,80.40
2023-09-21T03:00:39.786Z,80.40
2023-09-21T03:04:35.470Z,80.45
2023-09-21T03:08:37.042Z,80.32
2023-09-21T03:12:37.000Z,80.53
2023-09-21T03:16:38.572Z,80.34
2023-09-21T03:20:37.022Z,80.42
2023-09-21T03:24:39.782Z,80.01
2023-09-21T03:28:37.157Z,80.45
2023-09-21T03:32:35.705Z,80.12
2023-09-21T03:36:38.389Z,80.58
2023-09-21T03:40:35.621Z,80.26
2023-09-21T03:44:36.366Z,80.40
2023-09-21T03:48:35.965Z,80.39
2023-09-21T03:56:36.496Z,80.83
2023-09-21T04:00:38.709Z,80.33
2023-09-21T04:04:36.424Z,80.64
2023-09-21T04:08:35.814Z,80.43
2023-09-21T04:12:39.304Z,80.28
2023-09-21T04:16:35.780Z,80.66
2023-09-21T04:20:40.045Z,80.46
2023-09-21T04:24:36.313Z,80.57
2023-09-21T04:28:35.979Z,80.69
2023-09-21T04:32:36.944Z,80.54
2023-09-21T04:36:36.019Z,80.75
2023-09-21T04:44:35.948Z,80.06
2023-09-21T04:48:37.001Z,79.80
2023-09-21T04:52:36.256Z,79.82
2023-09-21T05:00:36.722Z,79.92
2023-09-21T05:04:36.019Z,79.93
2023-09-21T05:08:36.218Z,79.99
2023-09-21T05:12:36.049Z,80.09
2023-09-21T05:16:37.958Z,80.18
2023-09-21T05:20:36.222Z,80.15
2023-09-21T05:24:36.624Z,80.48
2023-09-21T05:28:36.308Z,80.27
2023-09-21T05:32:38.058Z,80.48
2023-09-21T05:36:35.863Z,80.49
2023-09-21T05:40:36.097Z,80.14
2023-09-21T05:46:58.194Z,80.33
2023-09-21T05:48:36.440Z,79.84
2023-09-21T05:52:36.102Z,80.03
2023-09-21T05:56:36.132Z,79.87
2023-09-21T06:00:36.244Z,80.49
2023-09-21T06:05:11.535Z,80.39
2023-09-21T06:08:37.342Z,80.28
2023-09-21T06:12:35.944Z,80.41
2023-09-21T06:16:36.249Z,80.93
2023-09-21T06:20:36.035Z,80.88
2023-09-21T06:23:44.694Z,80.88
2023-09-21T06:28:36.589Z,81.06
2023-09-21T06:32:36.141Z,81.06
2023-09-21T06:36:37.506Z,80.95
2023-09-21T06:40:37.098Z,81.29
2023-09-21T06:44:36.855Z,80.60
2023-09-21T06:48:36.909Z,81.29
2023-09-21T06:52:36.081Z,80.98
2023-09-21T06:56:36.288Z,80.71
2023-09-21T07:00:37.587Z,81.08
2023-09-21T07:04:37.809Z,80.87
2023-09-21T07:12:37.547Z,80.90
2023-09-21T07:16:36.157Z,79.98
2023-09-21T07:20:37.444Z,81.11
2023-09-21T07:24:37.351Z,80.36
2023-09-21T07:28:36.379Z,80.65
2023-09-21T07:32:36.273Z,80.93
2023-09-21T07:36:37.788Z,81.50
2023-09-21T07:40:36.259Z,80.82
2023-09-21T07:44:37.176Z,81.25
2023-09-21T07:48:36.532Z,81.19
2023-09-21T07:52:36.745Z,81.51
2023-09-21T07:56:36.289Z,81.32
2023-09-21T08:00:37.152Z,81.12
2023-09-21T08:04:36.990Z,79.80
2023-09-21T08:08:36.376Z,79.48
2023-09-21T08:16:37.800Z,80.24
2023-09-21T08:20:36.913Z,79.43
2023-09-21T08:24:36.561Z,79.72
2023-09-21T08:28:36.571Z,78.53
2023-09-21T08:32:36.740Z,78.98
2023-09-21T08:36:37.197Z,79.46
2023-09-21T08:40:38.400Z,79.12
2023-09-21T08:44:40.110Z,78.38
2023-09-21T08:48:37.260Z,77.95
2023-09-21T08:52:37.858Z,77.25
2023-09-21T08:56:36.916Z,76.72
2023-09-21T09:00:39.179Z,77.13
2023-09-21T09:04:37.097Z,76.30
2023-09-21T09:08:36.521Z,75.34
2023-09-21T09:12:37.883Z,75.48
2023-09-21T09:16:36.719Z,75.38
2023-09-21T09:24:37.167Z,74.55
2023-09-21T09:28:36.772Z,74.54
2023-09-21T09:32:40.348Z,73.77
2023-09-21T09:36:36.867Z,74.14
2023-09-21T09:40:37.975Z,72.85
2023-09-21T09:44:42.772Z,72.06
2023-09-21T09:48:39.880Z,72.02
2023-09-21T09:52:44.842Z,72.08
2023-09-21T09:56:41.601Z,72.03
2023-09-21T10:00:39.314Z,71.19
2023-09-21T10:04:38.525Z,71.03
2023-09-21T10:08:38.993Z,67.23
2023-09-21T10:12:37.949Z,66.98
2023-09-21T10:16:39.113Z,65.12
2023-09-21T10:20:37.668Z,65.51
2023-09-21T10:24:38.160Z,66.14
2023-09-21T10:28:39.197Z,65.22
2023-09-21T10:32:41.883Z,64.97
2023-09-21T10:36:40.732Z,65.04
2023-09-21T10:40:36.771Z,64.46
2023-09-21T10:44:55.750Z,62.85
2023-09-21T10:48:38.068Z,62.39
2023-09-21T10:52:39.573Z,63.15
2023-09-21T10:56:36.825Z,63.99
2023-09-21T11:00:39.630Z,62.04
2023-09-21T11:04:38.139Z,61.92
2023-09-21T11:12:38.440Z,62.74
2023-09-21T11:16:37.740Z,63.10
2023-09-21T11:20:39.533Z,62.29
2023-09-21T11:24:37.792Z,60.38
2023-09-21T11:28:38.011Z,59.15
2023-09-21T11:32:42.012Z,59.68
2023-09-21T11:36:37.418Z,59.57
2023-09-21T11:40:36.927Z,58.23
2023-09-21T11:44:50.042Z,57.70
2023-09-21T11:48:37.172Z,57.32
2023-09-21T11:52:37.182Z,59.22
2023-09-21T11:56:37.651Z,58.14
2023-09-21T12:00:45.779Z,58.95
2023-09-21T12:04:37.919Z,57.22
2023-09-21T12:08:37.388Z,58.12
2023-09-21T12:12:37.139Z,58.04
2023-09-21T12:16:37.424Z,57.71
2023-09-21T12:20:37.189Z,55.66
2023-09-21T12:24:37.167Z,57.31
2023-09-21T12:28:37.127Z,57.50
2023-09-21T12:32:38.852Z,55.69
2023-09-21T12:36:44.953Z,56.92
2023-09-21T12:40:38.589Z,56.94
2023-09-21T12:44:37.117Z,57.07
2023-09-21T12:48:38.260Z,57.18
2023-09-21T12:52:37.992Z,56.50
2023-09-21T12:56:37.541Z,54.94
2023-09-21T13:00:38.145Z,56.53
2023-09-21T13:04:37.336Z,54.97
2023-09-21T13:08:37.441Z,55.86
2023-09-21T13:12:39.518Z,56.14
2023-09-21T13:16:37.243Z,56.03
2023-09-21T13:20:37.384Z,56.92
2023-09-21T13:24:37.449Z,56.62
2023-09-21T13:28:37.327Z,60.80
2023-09-21T13:32:37.554Z,64.38
2023-09-21T13:36:37.489Z,66.26
2023-09-21T13:40:37.595Z,69.92
2023-09-21T13:44:37.440Z,71.93
2023-09-21T13:48:38.579Z,71.38
2023-09-21T13:52:37.824Z,72.46
2023-09-21T13:56:37.699Z,74.13
2023-09-21T14:00:37.599Z,72.61
2023-09-21T14:04:38.398Z,74.29
2023-09-21T14:08:38.504Z,72.79
2023-09-21T14:12:37.717Z,74.56
2023-09-21T14:16:37.659Z,75.46
2023-09-21T14:20:37.538Z,74.91
2023-09-21T14:24:38.643Z,72.94
2023-09-21T14:28:37.639Z,72.83
2023-09-21T14:32:37.776Z,73.23
2023-09-21T14:36:39.760Z,71.53
2023-09-21T14:44:38.013Z,69.58
2023-09-21T14:48:37.522Z,68.52
2023-09-21T14:52:37.589Z,67.52
2023-09-21T14:56:37.518Z,69.04
2023-09-21T15:00:38.354Z,70.08
2023-09-21T15:04:39.707Z,69.79
2023-09-21T15:08:38.579Z,67.79
2023-09-21T15:12:38.856Z,66.96
2023-09-21T15:16:37.798Z,67.29
2023-09-21T15:20:37.965Z,64.74
2023-09-21T15:24:38.090Z,62.05
2023-09-21T15:28:37.576Z,62.52
2023-09-21T15:32:37.845Z,61.50
2023-09-21T15:36:40.975Z,61.26
2023-09-21T15:40:37.938Z,59.87
2023-09-21T15:44:37.630Z,58.55
2023-09-21T15:48:38.283Z,59.80
2023-09-21T15:52:37.729Z,60.68
2023-09-21T15:56:38.562Z,62.76
2023-09-21T16:00:37.749Z,61.18
2023-09-21T16:04:39.469Z,61.03
2023-09-21T16:08:37.731Z,62.52
2023-09-21T16:12:38.011Z,65.32
2023-09-21T16:17:05.031Z,66.21
2023-09-21T16:20:39.620Z,65.31
2023-09-21T16:24:37.974Z,69.33
2023-09-21T16:28:38.229Z,71.12
2023-09-21T16:32:06.863Z,71.12
2023-09-21T16:32:37.950Z,71.55
2023-09-21T16:36:38.015Z,71.66
2023-09-21T16:40:38.565Z,70.58
2023-09-21T16:44:37.860Z,72.27
2023-09-21T16:48:37.847Z,72.12
2023-09-21T16:52:39.522Z,73.06
2023-09-21T16:56:38.273Z,73.62
2023-09-21T17:02:08.835Z,73.20
2023-09-21T17:04:37.952Z,73.92
2023-09-21T17:08:38.052Z,75.41
2023-09-21T17:12:39.259Z,75.61
2023-09-21T17:16:38.057Z,73.47
2023-09-21T17:20:50.450Z,74.23
2023-09-21T17:24:31.358Z,74.23
2023-09-21T17:24:37.823Z,75.58
2023-09-21T17:28:37.969Z,75.10
2023-09-21T17:35:37.428Z,76.05
2023-09-21T17:36:37.952Z,75.49
2023-09-21T17:41:22.136Z,75.41
2023-09-21T17:45:08.353Z,76.48
2023-09-21T17:49:02.535Z,76.48
2023-09-21T17:52:38.032Z,74.83
2023-09-21T17:56:38.435Z,75.48
2023-09-21T18:00:38.277Z,74.39
2023-09-21T18:04:38.411Z,74.10
2023-09-21T18:08:39.211Z,74.64
2023-09-21T18:12:39.992Z,74.51
2023-09-21T18:16:38.244Z,76.45
2023-09-21T18:20:39.288Z,76.37
2023-09-21T18:24:38.191Z,75.61
2023-09-21T18:32:38.542Z,76.47
2023-09-21T18:36:38.253Z,75.54
2023-09-21T18:40:43.479Z,76.09
2023-09-21T18:44:39.549Z,74.44
2023-09-21T18:48:38.366Z,74.22
2023-09-21T18:52:38.749Z,74.91
2023-09-21T18:56:50.627Z,74.29
2023-09-21T19:00:38.830Z,73.45
2023-09-21T19:04:39.794Z,73.91
2023-09-21T19:08:38.618Z,73.22
2023-09-21T19:12:39.214Z,73.42
2023-09-21T19:20:38.493Z,73.07
2023-09-21T19:24:38.394Z,73.15
2023-09-21T19:28:38.684Z,72.82
2023-09-21T19:32:38.339Z,71.95
2023-09-21T19:36:38.676Z,72.36
2023-09-21T19:40:38.510Z,72.73
2023-09-21T19:44:38.575Z,73.29
2023-09-21T19:48:38.384Z,73.60
2023-09-21T19:52:39.677Z,73.88
2023-09-21T19:56:40.312Z,74.54
2023-09-21T20:00:41.126Z,75.42
2023-09-21T20:04:38.712Z,75.45
2023-09-21T20:08:41.346Z,76.28
2023-09-21T20:12:38.590Z,77.48
2023-09-21T20:16:38.549Z,76.89
2023-09-21T20:20:38.567Z,76.98
2023-09-21T20:24:38.685Z,76.22
2023-09-21T20:28:38.449Z,74.41
2023-09-21T20:32:39.276Z,73.59
2023-09-21T20:36:38.558Z,73.39
2023-09-21T20:40:39.679Z,72.03
2023-09-21T20:44:40.121Z,72.07
2023-09-21T20:48:38.607Z,71.77
2023-09-21T20:52:38.603Z,72.32
2023-09-21T20:56:39.918Z,71.58
2023-09-21T21:00:38.761Z,72.11
2023-09-21T21:04:38.630Z,71.73
2023-09-21T21:08:38.728Z,71.96
2023-09-21T21:12:38.954Z,71.74
2023-09-21T21:19:29.898Z,72.54
2023-09-21T21:21:13.879Z,71.11
2023-09-21T21:24:38.643Z,71.29
2023-09-21T21:28:38.817Z,71.67
2023-09-21T21:32:38.720Z,73.57
2023-09-21T21:36:39.594Z,73.28
2023-09-21T21:40:38.638Z,73.57
2023-09-21T21:44:38.924Z,72.57
2023-09-21T21:48:38.719Z,73.08
2023-09-21T21:52:38.782Z,73.02
2023-09-21T21:56:38.700Z,73.23
2023-09-21T22:00:39.579Z,74.49
2023-09-21T22:04:40.146Z,75.23
2023-09-21T22:08:38.972Z,74.38
2023-09-21T22:12:38.772Z,74.51
2023-09-21T22:16:39.304Z,74.79
2023-09-21T22:20:40.163Z,74.21
2023-09-21T22:24:39.032Z,75.26
2023-09-21T22:32:39.103Z,75.24
2023-09-21T22:36:38.834Z,75.41
2023-09-21T22:40:39.072Z,74.97
2023-09-21T22:44:39.185Z,75.17
2023-09-21T22:48:42.033Z,74.33
2023-09-21T22:52:38.809Z,74.89
2023-09-21T22:56:38.994Z,74.40
2023-09-21T23:00:39.443Z,75.63
2023-09-21T23:04:39.233Z,75.64
2023-09-21T23:08:39.103Z,76.92
2023-09-21T23:12:39.498Z,76.16
2023-09-21T23:16:38.997Z,75.72
2023-09-21T23:20:39.987Z,75.56
2023-09-21T23:24:39.214Z,75.10
2023-09-21T23:28:40.647Z,76.00
2023-09-21T23:32:39.580Z,75.73
2023-09-21T23:36:39.703Z,76.21
2023-09-21T23:40:39.000Z,76.60
2023-09-21T23:44:39.974Z,77.29
2023-09-21T23:48:40.105Z,76.88
2023-09-21T23:52:40.497Z,76.94
2023-09-21T23:56:38.988Z,76.66
